createdAt,value
2023-02-17T00:01:47.542Z,-4.07
2023-02-17T00:04:17.828Z,-4.09
2023-02-17T00:06:46.917Z,-4.12
2023-02-17T00:09:16.587Z,-4.16
2023-02-17T00:11:47.364Z,-4.23
2023-02-17T00:14:16.563Z,-4.30
2023-02-17T00:16:46.500Z,-4.34
2023-02-17T00:19:25.512Z,-4.38
2023-02-17T00:22:01.247Z,-4.40
2023-02-17T00:24:32.952Z,-4.42
2023-02-17T00:27:02.443Z,-4.44
2023-02-17T00:29:32.283Z,-4.47
2023-02-17T00:32:01.310Z,-4.51
2023-02-17T00:34:30.851Z,-4.56
2023-02-17T00:37:01.085Z,-4.61
2023-02-17T00:39:31.038Z,-4.61
2023-02-17T00:42:00.405Z,-4.62
2023-02-17T00:44:33.205Z,-4.65
2023-02-17T00:47:02.686Z,-4.67
2023-02-17T00:49:32.708Z,-4.67
2023-02-17T00:52:02.498Z,-4.66
2023-02-17T00:54:31.934Z,-4.67
2023-02-17T00:57:01.222Z,-4.67
2023-02-17T00:59:34.795Z,-4.69
2023-02-17T01:02:06.292Z,-4.68
2023-02-17T01:04:36.877Z,-4.66
2023-02-17T01:07:05.891Z,-4.64
2023-02-17T01:09:36.410Z,-4.62
2023-02-17T01:12:06.311Z,-4.63
2023-02-17T01:14:35.096Z,-4.65
2023-02-17T01:17:04.700Z,-4.69
2023-02-17T01:19:34.412Z,-4.72
2023-02-17T01:22:03.722Z,-4.72
2023-02-17T01:24:32.732Z,-4.72
2023-02-17T01:27:02.122Z,-4.73
2023-02-17T01:29:32.068Z,-4.72
2023-02-17T01:44:12.012Z,-4.41
2023-02-17T01:46:43.909Z,-4.41
2023-02-17T01:49:17.595Z,-4.42
2023-02-17T01:52:08.691Z,-4.43
2023-02-17T01:54:57.329Z,-4.46
2023-02-17T01:57:31.642Z,-4.49
2023-02-17T02:00:01.737Z,-4.51
2023-02-17T02:02:46.585Z,-4.54
2023-02-17T02:05:20.080Z,-4.58
2023-02-17T02:07:51.234Z,-4.64
2023-02-17T02:10:21.082Z,-4.68
2023-02-17T02:12:50.676Z,-4.72
2023-02-17T02:15:27.517Z,-4.75
2023-02-17T02:18:24.516Z,-4.78
2023-02-17T02:21:23.608Z,-4.81
2023-02-17T02:24:30.982Z,-4.84
2023-02-17T02:27:24.783Z,-4.86
2023-02-17T02:29:53.751Z,-4.88
2023-02-17T02:32:40.586Z,-4.86
2023-02-17T02:35:45.607Z,-4.86
2023-02-17T02:38:22.274Z,-4.87
2023-02-17T02:40:57.219Z,-4.86
2023-02-17T02:43:27.848Z,-4.83
2023-02-17T02:45:58.162Z,-4.82
2023-02-17T02:48:27.994Z,-4.80
2023-02-17T02:51:17.882Z,-4.77
2023-02-17T02:54:04.977Z,-4.75
2023-02-17T02:57:10.755Z,-4.76
2023-02-17T03:00:08.845Z,-4.75
2023-02-17T03:02:52.738Z,-4.74
2023-02-17T03:05:46.765Z,-4.74
2023-02-17T03:08:27.790Z,-4.75
2023-02-17T03:10:58.692Z,-4.80
2023-02-17T03:13:29.145Z,-4.84
2023-02-17T03:16:02.145Z,-4.86
2023-02-17T03:18:38.237Z,-4.89
2023-02-17T03:21:16.518Z,-4.90
2023-02-17T03:23:47.502Z,-4.90
2023-02-17T03:26:18.457Z,-4.91
2023-02-17T03:28:50.924Z,-4.93
2023-02-17T03:31:21.231Z,-4.94
2023-02-17T03:33:50.530Z,-4.95
2023-02-17T03:36:20.763Z,-4.98
2023-02-17T03:38:50.490Z,-5.00
2023-02-17T03:41:20.466Z,-5.01
2023-02-17T03:43:49.979Z,-5.03
2023-02-17T03:46:20.055Z,-5.03
2023-02-17T03:48:49.412Z,-5.02
2023-02-17T03:51:24.407Z,-5.03
2023-02-17T03:53:53.818Z,-5.03
2023-02-17T03:56:23.661Z,-5.03
2023-02-17T03:58:53.456Z,-5.02
2023-02-17T04:01:22.559Z,-5.02
2023-02-17T04:03:52.142Z,-5.00
2023-02-17T04:06:22.870Z,-4.99
2023-02-17T04:08:52.199Z,-4.99
2023-02-17T04:11:22.645Z,-5.01
2023-02-17T04:13:52.113Z,-5.03
2023-02-17T04:16:22.026Z,-5.06
2023-02-17T04:18:51.730Z,-5.10
2023-02-17T04:21:21.330Z,-5.15
2023-02-17T04:23:50.274Z,-5.20
2023-02-17T04:26:19.955Z,-5.22
2023-02-17T04:28:50.671Z,-5.22
2023-02-17T04:31:19.741Z,-5.22
2023-02-17T04:33:49.166Z,-5.24
2023-02-17T04:36:18.712Z,-5.26
2023-02-17T04:38:47.998Z,-5.28
2023-02-17T04:41:16.869Z,-5.29
2023-02-17T04:43:46.257Z,-5.33
2023-02-17T04:46:15.516Z,-5.38
2023-02-17T04:48:45.019Z,-5.43
2023-02-17T04:51:13.949Z,-5.47
2023-02-17T04:53:44.152Z,-5.51
2023-02-17T04:56:13.375Z,-5.56
2023-02-17T04:58:42.974Z,-5.60
2023-02-17T05:01:11.868Z,-5.63
2023-02-17T05:03:40.956Z,-5.67
2023-02-17T05:06:11.387Z,-5.64
2023-02-17T05:08:40.683Z,-5.65
2023-02-17T05:11:09.687Z,-5.66
2023-02-17T05:13:38.798Z,-5.66
2023-02-17T05:16:08.039Z,-5.66
2023-02-17T05:18:38.729Z,-5.68
2023-02-17T05:21:07.710Z,-5.67
2023-02-17T05:23:41.629Z,-5.68
2023-02-17T05:26:11.729Z,-5.70
2023-02-17T05:28:40.647Z,-5.73
2023-02-17T05:31:09.755Z,-5.74
2023-02-17T05:33:39.518Z,-5.76
2023-02-17T05:36:10.596Z,-5.77
2023-02-17T05:38:40.607Z,-5.76
2023-02-17T05:41:09.509Z,-5.74
2023-02-17T05:43:39.089Z,-5.72
2023-02-17T05:46:09.173Z,-5.68
2023-02-17T05:48:38.186Z,-5.64
2023-02-17T05:51:07.918Z,-5.58
2023-02-17T05:53:37.202Z,-5.51
2023-02-17T05:56:07.153Z,-5.43
2023-02-17T05:58:36.717Z,-5.34
2023-02-17T06:01:12.357Z,-5.23
2023-02-17T06:03:41.468Z,-5.10
2023-02-17T06:06:10.158Z,-5.00
2023-02-17T06:08:40.439Z,-4.88
2023-02-17T06:11:09.383Z,-4.76
2023-02-17T06:13:38.682Z,-4.64
2023-02-17T06:16:08.108Z,-4.52
2023-02-17T06:18:36.959Z,-4.41
2023-02-17T06:21:06.566Z,-4.31
2023-02-17T06:23:36.297Z,-4.21
2023-02-17T06:26:05.522Z,-4.12
2023-02-17T06:28:35.261Z,-4.03
2023-02-17T06:31:04.749Z,-3.94
2023-02-17T06:33:34.086Z,-3.85
2023-02-17T06:36:03.461Z,-3.73
2023-02-17T06:38:33.832Z,-3.61
2023-02-17T06:41:03.114Z,-3.47
2023-02-17T06:43:31.896Z,-3.25
2023-02-17T06:46:01.144Z,-2.97
2023-02-17T06:48:33.291Z,-2.70
2023-02-17T06:51:02.269Z,-2.45
2023-02-17T06:53:31.140Z,-2.17
2023-02-17T06:56:00.258Z,-1.84
2023-02-17T06:58:29.026Z,-1.70
2023-02-17T07:00:57.816Z,-1.40
2023-02-17T07:03:27.119Z,-1.16
2023-02-17T07:05:59.762Z,-0.93
2023-02-17T07:08:28.593Z,-0.56
2023-02-17T07:10:57.280Z,-0.16
2023-02-17T07:13:26.471Z,0.18
2023-02-17T07:15:55.159Z,0.39
2023-02-17T07:18:23.938Z,0.54
2023-02-17T07:20:52.857Z,0.53
2023-02-17T07:23:21.622Z,0.56
2023-02-17T07:25:50.519Z,0.46
2023-02-17T07:28:19.499Z,0.60
2023-02-17T07:41:52.088Z,1.35
2023-02-17T07:44:22.818Z,1.62
2023-02-17T07:46:51.610Z,1.69
2023-02-17T07:49:20.389Z,1.70
2023-02-17T07:51:49.074Z,1.77
2023-02-17T07:54:19.304Z,1.99
2023-02-17T07:56:47.880Z,2.19
2023-02-17T07:59:17.193Z,2.34
2023-02-17T08:01:45.806Z,2.44
2023-02-17T08:04:14.498Z,2.62
2023-02-17T08:06:43.759Z,2.79
2023-02-17T08:09:31.598Z,2.81
2023-02-17T08:12:19.316Z,2.69
2023-02-17T08:14:47.911Z,2.53
2023-02-17T08:17:16.592Z,2.47
2023-02-17T08:19:49.350Z,2.41
2023-02-17T08:22:18.711Z,2.27
2023-02-17T08:24:47.987Z,2.24
2023-02-17T08:27:17.889Z,2.45
2023-02-17T08:29:46.972Z,2.51
2023-02-17T08:32:17.776Z,2.83
2023-02-17T08:34:46.598Z,3.15
2023-02-17T08:37:15.605Z,3.30
2023-02-17T08:39:44.273Z,3.46
2023-02-17T08:42:13.987Z,3.53
2023-02-17T08:44:43.083Z,3.41
2023-02-17T08:47:11.998Z,3.33
2023-02-17T08:49:41.402Z,3.23
2023-02-17T08:52:10.287Z,3.13
2023-02-17T08:54:39.670Z,3.25
2023-02-17T08:57:08.475Z,3.25
2023-02-17T08:59:37.451Z,3.29
2023-02-17T09:02:07.013Z,3.29
2023-02-17T09:04:35.776Z,3.45
2023-02-17T09:07:04.863Z,3.59
2023-02-17T09:09:35.198Z,3.76
2023-02-17T09:12:04.472Z,4.05
2023-02-17T09:14:33.157Z,4.17
2023-02-17T09:17:02.265Z,4.35
2023-02-17T09:19:32.640Z,4.42
2023-02-17T09:22:01.151Z,4.40
2023-02-17T09:24:29.962Z,4.44
2023-02-17T09:26:58.522Z,4.63
2023-02-17T09:29:27.934Z,4.62
2023-02-17T09:31:56.938Z,4.61
2023-02-17T09:34:25.728Z,4.63
2023-02-17T09:36:56.442Z,4.94
2023-02-17T09:39:26.572Z,5.13
2023-02-17T09:41:58.623Z,5.22
2023-02-17T09:44:39.426Z,5.34
2023-02-17T09:47:21.512Z,5.46
2023-02-17T09:50:18.884Z,6.00
2023-02-17T09:53:01.480Z,6.62
2023-02-17T09:55:39.295Z,7.14
2023-02-17T09:58:20.675Z,7.68
2023-02-17T10:00:55.004Z,8.49
2023-02-17T10:03:36.437Z,9.31
2023-02-17T10:06:28.035Z,10.03
2023-02-17T10:09:23.299Z,10.89
2023-02-17T10:12:10.399Z,11.55
2023-02-17T10:14:52.621Z,11.39
2023-02-17T10:17:30.328Z,11.99
2023-02-17T10:20:30.137Z,11.47
2023-02-17T10:23:27.675Z,12.24
2023-02-17T10:26:45.162Z,13.10
2023-02-17T10:29:29.137Z,13.59
2023-02-17T10:32:01.230Z,13.90
2023-02-17T10:34:38.494Z,14.22
2023-02-17T10:37:42.575Z,14.09
2023-02-17T10:40:32.587Z,14.38
2023-02-17T10:43:07.644Z,14.52
2023-02-17T10:45:42.159Z,14.67
2023-02-17T10:48:29.157Z,13.91
2023-02-17T10:51:00.718Z,13.53
2023-02-17T10:53:38.106Z,13.28
2023-02-17T10:56:36.895Z,13.06
2023-02-17T10:59:22.179Z,12.62
2023-02-17T11:01:51.281Z,12.68
2023-02-17T11:04:19.957Z,12.94
2023-02-17T11:06:55.477Z,13.61
2023-02-17T11:09:32.308Z,13.81
2023-02-17T11:12:05.058Z,14.34
2023-02-17T11:14:37.118Z,13.93
2023-02-17T11:17:35.920Z,13.70
2023-02-17T11:20:07.366Z,13.44
2023-02-17T11:22:41.477Z,13.67
2023-02-17T11:25:28.904Z,13.94
2023-02-17T11:28:02.498Z,13.79
2023-02-17T11:30:33.907Z,14.56
2023-02-17T11:33:18.138Z,14.85
2023-02-17T11:35:55.272Z,14.91
2023-02-17T11:38:46.398Z,14.85
2023-02-17T11:41:15.302Z,14.10
2023-02-17T11:44:01.375Z,13.91
2023-02-17T11:46:53.434Z,14.08
2023-02-17T11:49:33.676Z,14.13
2023-02-17T11:52:35.108Z,14.04
2023-02-17T11:55:03.913Z,13.99
2023-02-17T11:57:46.033Z,14.08
2023-02-17T12:00:18.033Z,14.65
2023-02-17T12:03:05.480Z,14.75
2023-02-17T12:06:02.548Z,15.49
2023-02-17T12:08:41.682Z,15.75
2023-02-17T12:11:38.744Z,14.70
2023-02-17T12:14:41.422Z,13.41
2023-02-17T12:17:25.259Z,13.73
2023-02-17T12:20:31.935Z,12.49
2023-02-17T12:23:17.001Z,11.70
2023-02-17T12:25:59.815Z,10.81
2023-02-17T12:28:54.821Z,10.40
2023-02-17T12:31:40.773Z,9.81
2023-02-17T12:34:32.451Z,8.93
2023-02-17T12:37:01.738Z,8.50
2023-02-17T12:39:46.289Z,8.08
2023-02-17T12:42:22.176Z,7.63
2023-02-17T12:44:58.886Z,7.49
2023-02-17T12:47:35.700Z,7.17
2023-02-17T12:50:17.180Z,7.16
2023-02-17T12:52:49.352Z,7.30
2023-02-17T12:55:22.374Z,7.26
2023-02-17T12:58:00.970Z,7.50
2023-02-17T13:00:39.069Z,7.58
2023-02-17T13:03:08.578Z,7.60
2023-02-17T13:05:48.517Z,7.52
2023-02-17T13:08:46.489Z,7.37
2023-02-17T13:11:28.223Z,7.51
2023-02-17T13:13:57.077Z,7.66
2023-02-17T13:16:26.066Z,7.68
2023-02-17T13:18:54.747Z,7.67
2023-02-17T13:21:25.173Z,7.71
2023-02-17T13:24:01.542Z,7.72
2023-02-17T13:26:32.069Z,7.68
2023-02-17T13:29:35.483Z,7.75
2023-02-17T13:32:07.911Z,7.91
2023-02-17T13:34:45.437Z,7.92
2023-02-17T13:37:20.266Z,7.96
2023-02-17T13:39:48.850Z,7.92
2023-02-17T13:42:35.150Z,7.97
2023-02-17T13:45:37.930Z,7.95
2023-02-17T13:48:22.394Z,7.93
2023-02-17T13:50:54.458Z,7.81
2023-02-17T13:53:37.482Z,7.70
2023-02-17T13:56:24.800Z,7.67
2023-02-17T13:58:53.990Z,7.61
2023-02-17T14:01:29.059Z,7.56
2023-02-17T14:04:00.479Z,7.49
2023-02-17T14:06:38.071Z,7.28
2023-02-17T14:09:24.878Z,7.24
2023-02-17T14:11:55.619Z,7.22
2023-02-17T14:14:37.303Z,7.10
2023-02-17T14:17:12.443Z,6.98
2023-02-17T14:19:46.553Z,6.94
2023-02-17T14:22:33.509Z,6.81
2023-02-17T14:25:08.847Z,6.73
2023-02-17T14:27:44.863Z,6.59
2023-02-17T14:30:16.313Z,6.37
2023-02-17T14:32:45.300Z,6.16
2023-02-17T14:35:14.201Z,5.99
2023-02-17T14:37:43.476Z,5.82
2023-02-17T14:40:25.832Z,5.63
2023-02-17T14:42:54.400Z,5.55
2023-02-17T14:45:23.272Z,5.46
2023-02-17T14:47:51.961Z,5.35
2023-02-17T14:50:21.163Z,5.24
2023-02-17T14:52:52.848Z,5.13
2023-02-17T14:55:39.737Z,5.03
2023-02-17T14:58:18.148Z,4.98
2023-02-17T15:00:48.158Z,4.93
2023-02-17T15:03:17.358Z,4.89
2023-02-17T15:05:46.065Z,4.86
2023-02-17T15:08:27.430Z,4.86
2023-02-17T15:10:56.229Z,4.81
2023-02-17T15:13:24.829Z,4.79
2023-02-17T15:15:55.153Z,4.82
2023-02-17T15:18:23.912Z,4.83
2023-02-17T15:20:52.805Z,4.82
2023-02-17T15:23:24.253Z,4.78
2023-02-17T15:25:54.983Z,4.77
2023-02-17T15:28:23.566Z,4.76
2023-02-17T15:30:55.460Z,4.74
2023-02-17T15:33:24.977Z,4.73
2023-02-17T15:35:55.197Z,4.73
2023-02-17T15:38:24.875Z,4.73
2023-02-17T15:40:57.129Z,4.69
2023-02-17T15:46:15.323Z,4.66
2023-02-17T15:48:46.131Z,4.59
2023-02-17T15:51:16.054Z,4.54
2023-02-17T15:53:44.720Z,4.50
2023-02-17T15:56:22.723Z,4.48
2023-02-17T15:58:53.571Z,4.43
2023-02-17T16:01:28.401Z,4.38
2023-02-17T16:03:57.824Z,4.34
2023-02-17T16:06:27.984Z,4.30
2023-02-17T16:08:59.200Z,4.24
2023-02-17T16:11:28.995Z,4.18
2023-02-17T16:13:57.776Z,4.13
2023-02-17T16:16:36.447Z,4.11
2023-02-17T16:19:05.074Z,4.10
2023-02-17T16:21:33.965Z,4.10
2023-02-17T16:24:02.649Z,4.10
2023-02-17T16:26:36.956Z,4.10
2023-02-17T16:29:21.205Z,4.08
2023-02-17T16:31:50.497Z,4.07
2023-02-17T16:34:24.362Z,4.05
2023-02-17T16:36:57.145Z,4.03
2023-02-17T16:39:25.889Z,4.04
2023-02-17T16:41:54.669Z,4.03
2023-02-17T16:44:24.080Z,4.02
2023-02-17T16:46:54.830Z,4.02
2023-02-17T16:49:33.342Z,4.03
2023-02-17T16:52:08.450Z,4.05
2023-02-17T16:54:38.021Z,4.04
2023-02-17T16:57:07.072Z,4.01
2023-02-17T16:59:35.584Z,3.97
2023-02-17T17:02:04.364Z,3.95
2023-02-17T17:04:33.522Z,3.95
2023-02-17T17:07:02.202Z,3.93
2023-02-17T17:09:31.200Z,3.92
2023-02-17T17:11:59.889Z,3.91
2023-02-17T17:14:28.580Z,3.93
2023-02-17T17:17:01.160Z,3.95
2023-02-17T17:19:29.830Z,3.97
2023-02-17T17:21:58.416Z,3.97
2023-02-17T17:24:27.940Z,4.05
2023-02-17T17:26:56.504Z,4.08
2023-02-17T17:29:25.493Z,4.12
2023-02-17T17:31:54.074Z,4.07
2023-02-17T17:34:22.874Z,4.02
2023-02-17T17:36:51.557Z,3.97
2023-02-17T17:39:22.602Z,3.95
2023-02-17T17:41:51.791Z,3.94
2023-02-17T17:44:20.900Z,3.92
2023-02-17T17:46:49.369Z,3.90
2023-02-17T17:49:18.771Z,3.89
2023-02-17T17:51:47.352Z,3.87
2023-02-17T17:54:15.938Z,3.84
2023-02-17T17:56:44.640Z,3.84
2023-02-17T17:59:14.846Z,3.83
2023-02-17T18:01:45.739Z,3.80
2023-02-17T18:04:14.905Z,3.77
2023-02-17T18:06:48.934Z,3.76
2023-02-17T18:09:31.216Z,3.74
2023-02-17T18:12:07.357Z,3.69
2023-02-17T18:14:38.628Z,3.66
2023-02-17T18:17:10.572Z,3.62
2023-02-17T18:19:40.066Z,3.56
2023-02-17T18:22:08.757Z,3.51
2023-02-17T18:24:37.614Z,3.48
2023-02-17T18:27:06.436Z,3.44
2023-02-17T18:29:35.224Z,3.40
2023-02-17T18:32:04.209Z,3.36
2023-02-17T18:34:33.611Z,3.34
2023-02-17T18:37:02.300Z,3.28
2023-02-17T18:39:30.980Z,3.24
2023-02-17T18:41:59.562Z,3.19
2023-02-17T18:44:28.044Z,3.13
2023-02-17T18:46:56.627Z,3.13
2023-02-17T18:49:25.207Z,3.11
2023-02-17T18:51:54.813Z,3.08
2023-02-17T18:54:23.498Z,3.05
2023-02-17T18:56:52.188Z,3.04
2023-02-17T18:59:20.775Z,2.99
2023-02-17T19:01:49.457Z,2.96
2023-02-17T19:04:18.143Z,2.91
2023-02-17T19:06:46.724Z,2.90
2023-02-17T19:09:15.512Z,2.87
2023-02-17T19:11:44.297Z,2.84
2023-02-17T19:14:13.284Z,2.83
2023-02-17T19:16:42.179Z,2.84
2023-02-17T19:19:10.785Z,2.84
2023-02-17T19:21:39.361Z,2.85
2023-02-17T19:24:09.871Z,2.83
2023-02-17T19:26:38.659Z,2.82
2023-02-17T19:29:07.149Z,2.79
2023-02-17T19:31:36.036Z,2.76
2023-02-17T19:34:04.817Z,2.75
2023-02-17T19:36:33.335Z,2.73
2023-02-17T19:39:02.319Z,2.73
2023-02-17T19:41:30.774Z,2.72
2023-02-17T19:43:59.466Z,2.70
2023-02-17T19:46:28.688Z,2.69
2023-02-17T19:48:57.252Z,2.66
2023-02-17T19:51:26.034Z,2.65
2023-02-17T19:53:54.741Z,2.63
2023-02-17T19:56:25.863Z,2.63
2023-02-17T19:58:55.327Z,2.59
2023-02-17T20:01:26.893Z,2.55
2023-02-17T20:03:56.743Z,2.52
2023-02-17T20:06:33.934Z,2.51
2023-02-17T20:09:05.883Z,2.52
2023-02-17T20:11:34.664Z,2.53
2023-02-17T20:14:03.863Z,2.53
2023-02-17T20:16:32.964Z,2.49
2023-02-17T20:19:03.190Z,2.45
2023-02-17T20:21:34.840Z,2.42
2023-02-17T20:24:03.325Z,2.38
2023-02-17T20:26:38.045Z,2.35
2023-02-17T20:29:07.140Z,2.32
2023-02-17T20:31:37.903Z,2.30
2023-02-17T20:34:09.351Z,2.28
2023-02-17T20:36:37.758Z,2.27
2023-02-17T20:39:06.386Z,2.25
2023-02-17T20:41:35.072Z,2.22
2023-02-17T20:44:05.169Z,2.19
2023-02-17T20:46:33.982Z,2.16
2023-02-17T20:49:02.884Z,2.17
2023-02-17T20:51:31.559Z,2.16
2023-02-17T20:54:00.356Z,2.17
2023-02-17T20:56:35.511Z,2.18
2023-02-17T20:59:05.751Z,2.20
2023-02-17T21:01:34.191Z,2.20
2023-02-17T21:04:03.349Z,2.20
2023-02-17T21:06:35.548Z,2.21
2023-02-17T21:09:08.655Z,2.22
2023-02-17T21:11:37.632Z,2.21
2023-02-17T21:14:06.116Z,2.19
2023-02-17T21:16:34.715Z,2.18
2023-02-17T21:19:04.829Z,2.16
2023-02-17T21:21:33.603Z,2.12
2023-02-17T21:24:02.297Z,2.09
2023-02-17T21:26:31.183Z,2.09
2023-02-17T21:28:59.975Z,2.10
2023-02-17T21:31:32.032Z,2.11
2023-02-17T21:34:01.233Z,2.12
2023-02-17T21:36:30.321Z,2.11
2023-02-17T21:38:59.521Z,2.12
2023-02-17T21:41:30.422Z,2.16
2023-02-17T21:44:19.125Z,2.20
2023-02-17T21:46:49.893Z,2.22
2023-02-17T21:49:18.535Z,2.23
2023-02-17T21:51:47.316Z,2.23
2023-02-17T21:54:16.563Z,2.24
2023-02-17T21:56:45.508Z,2.23
2023-02-17T21:59:14.606Z,2.22
2023-02-17T22:01:43.185Z,2.22
2023-02-17T22:04:11.915Z,2.23
2023-02-17T22:06:42.300Z,2.24
2023-02-17T22:09:15.947Z,2.25
2023-02-17T22:11:46.576Z,2.23
2023-02-17T22:14:18.903Z,2.22
2023-02-17T22:16:48.584Z,2.21
2023-02-17T22:19:21.354Z,2.21
2023-02-17T22:21:51.518Z,2.20
2023-02-17T22:24:23.062Z,2.20
2023-02-17T22:26:51.954Z,2.19
2023-02-17T22:29:21.371Z,2.18
2023-02-17T22:31:50.848Z,2.15
2023-02-17T22:34:19.954Z,2.13
2023-02-17T22:36:49.283Z,2.08
2023-02-17T22:39:18.069Z,2.03
2023-02-17T22:41:47.967Z,2.01
2023-02-17T22:44:16.868Z,2.00
2023-02-17T22:46:46.667Z,1.98
2023-02-17T22:49:15.357Z,1.94
2023-02-17T22:51:44.345Z,1.94
2023-02-17T22:54:13.025Z,1.94
2023-02-17T22:56:42.120Z,1.92
2023-02-17T22:59:11.421Z,1.91
2023-02-17T23:01:40.259Z,1.90
2023-02-17T23:04:09.689Z,1.90
2023-02-17T23:06:38.822Z,1.88
2023-02-17T23:09:10.346Z,1.87
2023-02-17T23:11:50.544Z,1.87
2023-02-17T23:14:24.325Z,1.88
2023-02-17T23:16:55.160Z,1.89
2023-02-17T23:19:24.681Z,1.89
2023-02-17T23:21:59.260Z,1.89
2023-02-17T23:24:28.687Z,1.89
2023-02-17T23:26:58.984Z,1.90
2023-02-17T23:29:28.782Z,1.92
2023-02-17T23:31:57.849Z,1.94
2023-02-17T23:34:28.728Z,1.97
2023-02-17T23:36:57.559Z,1.99
2023-02-17T23:39:26.757Z,2.03
2023-02-17T23:41:55.718Z,2.05
2023-02-17T23:44:25.220Z,2.08
2023-02-17T23:46:54.439Z,2.11
2023-02-17T23:49:23.233Z,2.14
2023-02-17T23:51:52.233Z,2.15
2023-02-17T23:54:21.218Z,2.17
2023-02-17T23:56:50.114Z,2.20
2023-02-17T23:59:19.311Z,2.20
